| time (UTC) | temp F | wind direction | speed MPH | gust MPH | rain 1hr in | rain 24hr in | rain mn in | humidity % | barometer mb |
| 20260506061539 | 53 | 14 | 3.0 | 9.0 | 0.00 | 0.00 | 0.00 | 81 | 1010.8 |
| 20260506044618 | 56 | 36 | 5.0 | 16.0 | 0.00 | 0.00 | 0.00 | 74 | 1009.5 |
| 20260506043046 | 57 | 97 | 4.0 | 13.0 | 0.00 | 0.00 | 0.00 | 72 | 1009.9 |
| 20260506041553 | 58 | 9 | 6.0 | 14.0 | 0.00 | 0.00 | 0.00 | 70 | 1009.9 |
| 20260506040043 | 59 | 60 | 3.0 | 11.0 | 0.00 | 0.00 | 0.00 | 68 | 1009.8 |
| 20260506034605 | 60 | 42 | 3.0 | 10.0 | 0.00 | 0.00 | 0.00 | 66 | 1009.8 |
| 20260506033039 | 62 | 44 | 3.0 | 13.0 | 0.00 | 0.00 | 0.00 | 64 | 1009.8 |
| 20260506031545 | 63 | 360 | 3.0 | 12.0 | 0.00 | 0.00 | 0.00 | 63 | 1009.6 |
| 20260506030045 | 65 | 11 | 4.0 | 10.0 | 0.00 | 0.00 | 0.00 | 62 | 1009.2 |
| 20260506024544 | 66 | 58 | 2.0 | 8.0 | 0.00 | 0.00 | 0.00 | 60 | 1008.8 |
| 20260506023101 | 67 | 36 | 2.0 | 8.0 | 0.00 | 0.00 | 0.00 | 58 | 1008.8 |
| 20260506021539 | 68 | 20 | 3.0 | 12.0 | 0.00 | 0.00 | 0.00 | 57 | 1008.5 |
| 20260506020046 | 68 | 11 | 3.0 | 9.0 | 0.00 | 0.00 | 0.00 | 56 | 1008.3 |
| 20260506014545 | 69 | 83 | 3.0 | 8.0 | 0.00 | 0.00 | 0.00 | 55 | 1008.0 |
| 20260506013043 | 70 | 22 | 2.0 | 13.0 | 0.00 | 0.00 | 0.00 | 53 | 1007.9 |
| 20260506011544 | 71 | 42 | 3.0 | 10.0 | 0.00 | 0.00 | 0.00 | 53 | 1007.3 |
| 20260506010051 | 72 | 44 | 3.0 | 9.0 | 0.00 | 0.00 | 0.00 | 52 | 1007.3 |
| 20260506004559 | 73 | 40 | 4.0 | 12.0 | 0.00 | 0.00 | 0.00 | 51 | 1006.8 |
| 20260506003101 | 74 | 352 | 3.0 | 11.0 | 0.00 | 0.00 | 0.00 | 51 | 1006.9 |
| 20260506001544 | 75 | 348 | 3.0 | 11.0 | 0.00 | 0.00 | 0.00 | 50 | 1006.5 |
| 20260506000043 | 76 | 9 | 2.0 | 12.0 | 0.00 | 0.00 | 0.00 | 51 | 1006.3 |
| 20260505234559 | 77 | 29 | 5.0 | 14.0 | 0.00 | 0.00 | 0.00 | 49 | 1006.3 |
| 20260505233040 | 78 | 51 | 5.0 | 16.0 | 0.00 | 0.00 | 0.00 | 49 | 1005.5 |
| 20260505231540 | 81 | 306 | 4.0 | 16.0 | 0.00 | 0.00 | 0.00 | 46 | 1005.6 |
| 20260505230042 | 83 | 347 | 5.0 | 11.0 | 0.00 | 0.00 | 0.00 | 41 | 1006.2 |
| 20260505224543 | 85 | 360 | 5.0 | 16.0 | 0.00 | 0.00 | 0.00 | 37 | 1005.7 |
| 20260505223044 | 88 | 16 | 5.0 | 13.0 | 0.00 | 0.00 | 0.00 | 35 | 1005.3 |
| 20260505221543 | 89 | 30 | 3.0 | 9.0 | 0.00 | 0.00 | 0.00 | 36 | 1004.8 |
| 20260505220055 | 89 | 65 | 3.0 | 9.0 | 0.00 | 0.00 | 0.00 | 34 | 1005.0 |
| 20260505214541 | 91 | 28 | 4.0 | 12.0 | 0.00 | 0.00 | 0.00 | 31 | 1004.9 |
| 20260505213042 | 91 | 227 | 5.0 | 11.0 | 0.00 | 0.00 | 0.00 | 28 | 1005.0 |
| 20260505211551 | 90 | 115 | 2.0 | 10.0 | 0.00 | 0.00 | 0.00 | 35 | 1005.2 |
| 20260505210043 | 90 | 221 | 4.0 | 9.0 | 0.00 | 0.00 | 0.00 | 34 | 1005.4 |
| 20260505204545 | 90 | 211 | 5.0 | 9.0 | 0.00 | 0.00 | 0.00 | 33 | 1005.4 |
| 20260505203049 | 89 | 138 | 4.0 | 9.0 | 0.00 | 0.00 | 0.00 | 38 | 1005.3 |
| 20260505201546 | 89 | 168 | 4.0 | 10.0 | 0.00 | 0.00 | 0.00 | 38 | 1006.0 |
| 20260505200043 | 89 | 217 | 3.0 | 9.0 | 0.00 | 0.00 | 0.00 | 36 | 1006.2 |
| 20260505194545 | 88 | 96 | 3.0 | 11.0 | 0.00 | 0.00 | 0.00 | 40 | 1006.2 |
| 20260505193046 | 88 | 202 | 3.0 | 10.0 | 0.00 | 0.00 | 0.00 | 39 | 1006.4 |
| 20260505191551 | 87 | 215 | 4.0 | 12.0 | 0.00 | 0.00 | 0.00 | 40 | 1006.6 |
| 20260505190044 | 86 | 232 | 2.0 | 11.0 | 0.00 | 0.00 | 0.00 | 44 | 1006.7 |
| 20260505184545 | 86 | 146 | 2.0 | 11.0 | 0.00 | 0.00 | 0.00 | 45 | 1006.8 |
| 20260505183041 | 85 | 209 | 5.0 | 11.0 | 0.00 | 0.00 | 0.00 | 46 | 1007.0 |
| 20260505181542 | 84 | 264 | 4.0 | 13.0 | 0.00 | 0.00 | 0.00 | 45 | 1007.2 |
| 20260505180049 | 83 | 222 | 6.0 | 12.0 | 0.00 | 0.00 | 0.00 | 49 | 1007.4 |
| 20260505174604 | 83 | 311 | 6.0 | 14.0 | 0.00 | 0.00 | 0.00 | 48 | 1007.2 |
| 20260505173046 | 82 | 240 | 4.0 | 12.0 | 0.00 | 0.00 | 0.00 | 52 | 1007.1 |
| 20260505171542 | 81 | 216 | 6.0 | 15.0 | 0.00 | 0.00 | 0.00 | 52 | 1007.2 |
| 20260505170100 | 80 | 232 | 4.0 | 12.0 | 0.00 | 0.00 | 0.00 | 58 | 1007.2 |
| 20260505164542 | 79 | 244 | 6.0 | 14.0 | 0.00 | 0.00 | 0.00 | 58 | 1007.1 |
| 20260505163046 | 78 | 189 | 5.0 | 15.0 | 0.00 | 0.00 | 0.00 | 60 | 1007.1 |
| 20260505161554 | 77 | 229 | 8.0 | 17.0 | 0.00 | 0.00 | 0.00 | 61 | 1007.1 |
| 20260505153053 | 75 | 229 | 9.0 | 16.0 | 0.00 | 0.00 | 0.00 | 64 | 1006.8 |
| 20260505151546 | 75 | 229 | 9.0 | 18.0 | 0.00 | 0.00 | 0.00 | 67 | 1006.5 |
| 20260505124544 | 67 | 221 | 8.0 | 15.0 | 0.00 | 0.00 | 0.00 | 81 | 1005.3 |
| 20260505123101 | 67 | 184 | 7.0 | 16.0 | 0.00 | 0.00 | 0.00 | 81 | 1005.2 |
| 20260505121539 | 67 | 207 | 9.0 | 19.0 | 0.00 | 0.00 | 0.00 | 81 | 1005.1 |
| 20260505120046 | 67 | 167 | 9.0 | 16.0 | 0.00 | 0.00 | 0.00 | 81 | 1005.1 |
| 20260505114603 | 67 | 212 | 10.0 | 17.0 | 0.00 | 0.00 | 0.00 | 80 | 1005.0 |
| 20260505113042 | 67 | 202 | 10.0 | 21.0 | 0.00 | 0.00 | 0.00 | 80 | 1004.8 |
| 20260505111555 | 67 | 203 | 12.0 | 22.0 | 0.00 | 0.00 | 0.00 | 80 | 1004.7 |
| 20260505101544 | 67 | 165 | 10.0 | 21.0 | 0.00 | 0.00 | 0.00 | 79 | 1004.8 |
| 20260505100041 | 67 | 217 | 9.0 | 15.0 | 0.00 | 0.00 | 0.00 | 79 | 1004.7 |
| 20260505094542 | 68 | 184 | 8.0 | 20.0 | 0.00 | 0.00 | 0.00 | 78 | 1004.6 |
| 20260505093039 | 68 | 205 | 7.0 | 17.0 | 0.00 | 0.00 | 0.00 | 78 | 1004.8 |
| 20260505091546 | 68 | 163 | 7.0 | 16.0 | 0.00 | 0.00 | 0.00 | 78 | 1005.0 |
| 20260505090052 | 68 | 215 | 10.0 | 20.0 | 0.00 | 0.00 | 0.00 | 78 | 1004.9 |
| 20260505084543 | 68 | 193 | 9.0 | 19.0 | 0.00 | 0.00 | 0.00 | 77 | 1005.0 |
| 20260505083047 | 69 | 229 | 9.0 | 19.0 | 0.00 | 0.00 | 0.00 | 77 | 1005.3 |
| 20260505081548 | 69 | 263 | 8.0 | 16.0 | 0.00 | 0.00 | 0.00 | 77 | 1005.2 |
| 20260505080043 | 69 | 198 | 8.0 | 16.0 | 0.00 | 0.00 | 0.00 | 76 | 1005.3 |
| 20260505074546 | 69 | 227 | 9.0 | 20.0 | 0.00 | 0.00 | 0.00 | 75 | 1005.5 |
| 20260505073042 | 70 | 161 | 9.0 | 18.0 | 0.00 | 0.00 | 0.00 | 75 | 1005.7 |
| 20260505071542 | 70 | 207 | 7.0 | 18.0 | 0.00 | 0.00 | 0.00 | 74 | 1005.6 |
| 20260505070049 | 71 | 178 | 9.0 | 21.0 | 0.00 | 0.00 | 0.00 | 73 | 1006.0 |